Impacts METAR Board INFO
IDs:

KDFW - Dallas-Ft Worth Intl, TX, US

Updated at: 1247 UTC 20 Jan 2018
Potential Impact None Slight Moderate High
Time20/00Z 20/01Z 20/02Z 20/03Z 20/04Z 20/05Z 20/06Z 20/07Z 20/08Z 20/09Z 20/10Z 20/11Z 20/12Z
VIS10 10 10 10 10 9 8 2 1.25 2.5 9 10 10
CIG22 27 28 32 15 13 10 5 3 6 12 14 17
CoverOVCOVCOVCOVCOVCOVCOVCOVCOVCOVCOVCOVCOVC
FltCatMVFRMVFRMVFRVFRMVFRMVFRMVFRIFRLIFRIFRMVFRMVFRMVFR
WX---------------DZ BR-DZ BR-DZ BR------
WDir170180170170170170170180160190190190200
WSpd13 14 14 11 11 12 12 10 7 12 18 17 19
WGst22 22 -- -- -- -- -- -- -- -- -- 24 26
Raw hourly METARs
KDFW 192353Z 17013G22KT 10SM OVC022 13/06 A3001 RMK AO2 SLP162 T01280056 10144 20106 56010
KDFW 200053Z 18014G22KT 10SM BKN027 OVC250 12/06 A3003 RMK AO2 SLP167 T01220056
KDFW 200153Z 17014KT 10SM BKN028 BKN033 OVC250 12/06 A3004 RMK AO2 SLP170 T01220056
KDFW 200253Z 17011KT 10SM FEW020 BKN032 OVC250 12/06 A3004 RMK AO2 SLP169 T01220061 50007
KDFW 200353Z 17011KT 10SM OVC015 13/07 A3003 RMK AO2 SLP167 T01280072
KDFW 200453Z 17012KT 9SM OVC013 13/08 A3003 RMK AO2 SLP165 T01280083
KDFW 200553Z 17012KT 8SM OVC010 13/09 A3002 RMK AO2 SLP162 T01280089 10128 20122 401440028 58006
KDFW 200653Z 18010KT 2SM -DZ BR OVC005 12/11 A3001 RMK AO2 DZB09 SLP159 P0000 T01220106
KDFW 200753Z 16007KT 1 1/4SM -DZ BR OVC003 12/11 A3000 RMK AO2 SLP155 P0001 T01170106
KDFW 200853Z 19012KT 2 1/2SM -DZ BR BKN006 OVC013 13/12 A2998 RMK AO2 SLP150 P0000 60001 T01330117 58011
KDFW 200953Z 19018KT 9SM OVC012 14/12 A2996 RMK AO2 DZE16 SLP142 P0002 T01390117
KDFW 201053Z 19017G24KT 10SM OVC014 14/11 A2995 RMK AO2 PK WND 19029/1029 SLP138 T01390111
KDFW 201153Z 20019G26KT 10SM OVC017 14/11 A2996 RMK AO2 PK WND 20029/1055 SLP140 BINOVC 60003 70003 T01390106 10139 20117 55009